sensor_id;sensor_type;location;lat;lon;timestamp;P1;durP1;ratioP1;P2;durP2;ratioP2
23802;SDS011;12082;51.786;6.018;2024-01-25T00:01:14;39.53;;;7.40;;
23802;SDS011;12082;51.786;6.018;2024-01-25T00:03:40;26.73;;;6.03;;
23802;SDS011;12082;51.786;6.018;2024-01-25T00:06:06;33.83;;;7.43;;
23802;SDS011;12082;51.786;6.018;2024-01-25T00:08:33;34.87;;;6.37;;
23802;SDS011;12082;51.786;6.018;2024-01-25T00:10:59;28.23;;;5.57;;
23802;SDS011;12082;51.786;6.018;2024-01-25T00:13:25;44.97;;;7.13;;
23802;SDS011;12082;51.786;6.018;2024-01-25T00:15:51;31.20;;;6.47;;
23802;SDS011;12082;51.786;6.018;2024-01-25T00:18:17;29.93;;;6.03;;
23802;SDS011;12082;51.786;6.018;2024-01-25T00:20:43;26.83;;;6.10;;
23802;SDS011;12082;51.786;6.018;2024-01-25T00:23:09;30.93;;;6.30;;
23802;SDS011;12082;51.786;6.018;2024-01-25T00:25:35;29.23;;;6.13;;
23802;SDS011;12082;51.786;6.018;2024-01-25T00:28:01;27.60;;;6.47;;
23802;SDS011;12082;51.786;6.018;2024-01-25T00:30:28;28.17;;;5.33;;
23802;SDS011;12082;51.786;6.018;2024-01-25T00:32:54;30.70;;;6.33;;
23802;SDS011;12082;51.786;6.018;2024-01-25T00:35:20;30.67;;;6.00;;
23802;SDS011;12082;51.786;6.018;2024-01-25T00:37:46;30.07;;;6.53;;
23802;SDS011;12082;51.786;6.018;2024-01-25T00:40:12;22.87;;;5.43;;
23802;SDS011;12082;51.786;6.018;2024-01-25T00:42:42;35.93;;;6.23;;
23802;SDS011;12082;51.786;6.018;2024-01-25T00:45:09;34.17;;;7.83;;
23802;SDS011;12082;51.786;6.018;2024-01-25T00:47:36;30.33;;;5.43;;
23802;SDS011;12082;51.786;6.018;2024-01-25T00:50:02;27.43;;;6.20;;
23802;SDS011;12082;51.786;6.018;2024-01-25T00:52:28;27.03;;;6.40;;
23802;SDS011;12082;51.786;6.018;2024-01-25T00:54:54;31.17;;;6.03;;
23802;SDS011;12082;51.786;6.018;2024-01-25T00:57:20;31.60;;;6.27;;
23802;SDS011;12082;51.786;6.018;2024-01-25T00:59:46;29.53;;;6.53;;
23802;SDS011;12082;51.786;6.018;2024-01-25T01:02:13;42.93;;;7.83;;
23802;SDS011;12082;51.786;6.018;2024-01-25T01:04:39;37.80;;;7.93;;
23802;SDS011;12082;51.786;6.018;2024-01-25T01:07:06;35.83;;;6.63;;
23802;SDS011;12082;51.786;6.018;2024-01-25T01:09:32;37.70;;;8.27;;
23802;SDS011;12082;51.786;6.018;2024-01-25T01:11:58;26.43;;;6.20;;
23802;SDS011;12082;51.786;6.018;2024-01-25T01:14:24;35.63;;;6.70;;
23802;SDS011;12082;51.786;6.018;2024-01-25T01:16:50;42.30;;;7.13;;
23802;SDS011;12082;51.786;6.018;2024-01-25T01:19:16;28.80;;;6.87;;
23802;SDS011;12082;51.786;6.018;2024-01-25T01:21:42;34.70;;;5.97;;
23802;SDS011;12082;51.786;6.018;2024-01-25T01:24:12;40.70;;;8.53;;
23802;SDS011;12082;51.786;6.018;2024-01-25T01:26:38;27.90;;;6.17;;
23802;SDS011;12082;51.786;6.018;2024-01-25T01:29:06;49.83;;;6.17;;
23802;SDS011;12082;51.786;6.018;2024-01-25T01:31:33;28.93;;;5.83;;
23802;SDS011;12082;51.786;6.018;2024-01-25T01:33:59;36.50;;;6.47;;
23802;SDS011;12082;51.786;6.018;2024-01-25T01:36:25;39.87;;;7.90;;
23802;SDS011;12082;51.786;6.018;2024-01-25T01:38:51;34.47;;;6.37;;
23802;SDS011;12082;51.786;6.018;2024-01-25T01:41:17;39.60;;;7.07;;
23802;SDS011;12082;51.786;6.018;2024-01-25T01:43:43;38.17;;;6.50;;
23802;SDS011;12082;51.786;6.018;2024-01-25T01:46:10;47.37;;;6.50;;
23802;SDS011;12082;51.786;6.018;2024-01-25T01:48:38;32.07;;;6.40;;
23802;SDS011;12082;51.786;6.018;2024-01-25T01:51:05;29.40;;;6.00;;
23802;SDS011;12082;51.786;6.018;2024-01-25T01:53:32;32.93;;;6.43;;
23802;SDS011;12082;51.786;6.018;2024-01-25T01:55:58;34.73;;;6.20;;
23802;SDS011;12082;51.786;6.018;2024-01-25T01:58:24;34.57;;;6.53;;
23802;SDS011;12082;51.786;6.018;2024-01-25T02:00:52;40.77;;;6.50;;
23802;SDS011;12082;51.786;6.018;2024-01-25T02:03:18;30.57;;;6.63;;
23802;SDS011;12082;51.786;6.018;2024-01-25T02:05:44;39.93;;;6.67;;
23802;SDS011;12082;51.786;6.018;2024-01-25T02:08:11;32.43;;;7.10;;
23802;SDS011;12082;51.786;6.018;2024-01-25T02:10:37;28.10;;;5.30;;
23802;SDS011;12082;51.786;6.018;2024-01-25T02:13:03;29.57;;;5.83;;
23802;SDS011;12082;51.786;6.018;2024-01-25T02:15:30;33.30;;;6.30;;
23802;SDS011;12082;51.786;6.018;2024-01-25T02:17:56;36.53;;;6.90;;
23802;SDS011;12082;51.786;6.018;2024-01-25T02:20:22;27.20;;;5.43;;
23802;SDS011;12082;51.786;6.018;2024-01-25T02:22:48;26.17;;;6.10;;
23802;SDS011;12082;51.786;6.018;2024-01-25T02:25:14;37.80;;;7.60;;
23802;SDS011;12082;51.786;6.018;2024-01-25T02:27:39;19.10;;;5.30;;
23802;SDS011;12082;51.786;6.018;2024-01-25T02:30:06;37.27;;;6.20;;
23802;SDS011;12082;51.786;6.018;2024-01-25T02:32:32;28.43;;;5.83;;
23802;SDS011;12082;51.786;6.018;2024-01-25T02:34:58;40.83;;;6.57;;
23802;SDS011;12082;51.786;6.018;2024-01-25T02:37:24;36.03;;;6.13;;
23802;SDS011;12082;51.786;6.018;2024-01-25T02:39:50;30.30;;;5.30;;
23802;SDS011;12082;51.786;6.018;2024-01-25T02:42:16;40.30;;;6.93;;
23802;SDS011;12082;51.786;6.018;2024-01-25T02:44:43;30.77;;;7.37;;
23802;SDS011;12082;51.786;6.018;2024-01-25T02:47:09;27.63;;;6.60;;
23802;SDS011;12082;51.786;6.018;2024-01-25T02:49:36;27.70;;;5.57;;
23802;SDS011;12082;51.786;6.018;2024-01-25T02:52:02;31.83;;;6.83;;
23802;SDS011;12082;51.786;6.018;2024-01-25T02:54:28;31.97;;;6.37;;
23802;SDS011;12082;51.786;6.018;2024-01-25T02:56:54;30.70;;;5.80;;
23802;SDS011;12082;51.786;6.018;2024-01-25T02:59:20;35.67;;;5.40;;
23802;SDS011;12082;51.786;6.018;2024-01-25T03:01:46;40.13;;;6.53;;
23802;SDS011;12082;51.786;6.018;2024-01-25T03:04:12;30.03;;;6.23;;
23802;SDS011;12082;51.786;6.018;2024-01-25T03:06:38;30.37;;;6.43;;
23802;SDS011;12082;51.786;6.018;2024-01-25T03:09:04;36.77;;;6.80;;
23802;SDS011;12082;51.786;6.018;2024-01-25T03:11:30;30.10;;;5.77;;
23802;SDS011;12082;51.786;6.018;2024-01-25T03:13:56;29.77;;;6.03;;
23802;SDS011;12082;51.786;6.018;2024-01-25T03:16:22;42.93;;;7.43;;
23802;SDS011;12082;51.786;6.018;2024-01-25T03:18:48;42.83;;;6.93;;
23802;SDS011;12082;51.786;6.018;2024-01-25T03:21:14;48.27;;;7.50;;
23802;SDS011;12082;51.786;6.018;2024-01-25T03:23:40;30.50;;;6.10;;
23802;SDS011;12082;51.786;6.018;2024-01-25T03:26:06;29.10;;;6.60;;
23802;SDS011;12082;51.786;6.018;2024-01-25T03:28:35;32.67;;;7.00;;
23802;SDS011;12082;51.786;6.018;2024-01-25T03:31:03;33.57;;;5.93;;
23802;SDS011;12082;51.786;6.018;2024-01-25T03:33:29;40.63;;;7.67;;
23802;SDS011;12082;51.786;6.018;2024-01-25T03:35:57;30.97;;;6.83;;
23802;SDS011;12082;51.786;6.018;2024-01-25T03:38:27;45.03;;;6.40;;
23802;SDS011;12082;51.786;6.018;2024-01-25T03:40:53;40.63;;;6.17;;
23802;SDS011;12082;51.786;6.018;2024-01-25T03:43:21;38.83;;;6.43;;
23802;SDS011;12082;51.786;6.018;2024-01-25T03:45:48;45.93;;;7.50;;
23802;SDS011;12082;51.786;6.018;2024-01-25T03:48:14;31.50;;;7.43;;
23802;SDS011;12082;51.786;6.018;2024-01-25T03:50:40;38.80;;;7.00;;
23802;SDS011;12082;51.786;6.018;2024-01-25T03:53:06;36.80;;;7.03;;
23802;SDS011;12082;51.786;6.018;2024-01-25T03:55:32;46.50;;;6.90;;
23802;SDS011;12082;51.786;6.018;2024-01-25T03:57:58;50.30;;;8.47;;
23802;SDS011;12082;51.786;6.018;2024-01-25T04:00:24;41.77;;;6.90;;
23802;SDS011;12082;51.786;6.018;2024-01-25T04:02:50;38.67;;;7.17;;
23802;SDS011;12082;51.786;6.018;2024-01-25T04:05:16;40.07;;;7.47;;
23802;SDS011;12082;51.786;6.018;2024-01-25T04:07:42;32.63;;;7.23;;
23802;SDS011;12082;51.786;6.018;2024-01-25T04:10:08;40.97;;;6.63;;
23802;SDS011;12082;51.786;6.018;2024-01-25T04:12:34;36.63;;;5.90;;
23802;SDS011;12082;51.786;6.018;2024-01-25T04:15:00;32.33;;;6.70;;
23802;SDS011;12082;51.786;6.018;2024-01-25T04:17:26;36.27;;;7.33;;
23802;SDS011;12082;51.786;6.018;2024-01-25T04:19:52;44.03;;;7.63;;
23802;SDS011;12082;51.786;6.018;2024-01-25T04:22:18;39.30;;;6.37;;
23802;SDS011;12082;51.786;6.018;2024-01-25T04:24:44;34.60;;;7.13;;
23802;SDS011;12082;51.786;6.018;2024-01-25T04:27:13;34.03;;;7.27;;
23802;SDS011;12082;51.786;6.018;2024-01-25T04:29:39;39.50;;;7.30;;
23802;SDS011;12082;51.786;6.018;2024-01-25T04:32:07;36.03;;;8.33;;
23802;SDS011;12082;51.786;6.018;2024-01-25T04:34:33;40.27;;;8.53;;
23802;SDS011;12082;51.786;6.018;2024-01-25T04:36:59;33.47;;;6.70;;
23802;SDS011;12082;51.786;6.018;2024-01-25T04:39:25;40.63;;;7.07;;
23802;SDS011;12082;51.786;6.018;2024-01-25T04:41:51;44.83;;;7.97;;
23802;SDS011;12082;51.786;6.018;2024-01-25T04:44:17;38.10;;;8.67;;
23802;SDS011;12082;51.786;6.018;2024-01-25T04:46:43;49.63;;;7.67;;
23802;SDS011;12082;51.786;6.018;2024-01-25T04:49:09;36.67;;;7.50;;
23802;SDS011;12082;51.786;6.018;2024-01-25T04:51:35;38.17;;;8.73;;
23802;SDS011;12082;51.786;6.018;2024-01-25T04:54:01;46.37;;;7.23;;
23802;SDS011;12082;51.786;6.018;2024-01-25T04:56:28;42.27;;;7.47;;
23802;SDS011;12082;51.786;6.018;2024-01-25T04:58:54;44.13;;;7.67;;
23802;SDS011;12082;51.786;6.018;2024-01-25T05:01:20;45.43;;;8.37;;
23802;SDS011;12082;51.786;6.018;2024-01-25T05:03:46;41.83;;;7.40;;
23802;SDS011;12082;51.786;6.018;2024-01-25T05:06:12;32.70;;;7.47;;
23802;SDS011;12082;51.786;6.018;2024-01-25T05:08:38;36.00;;;6.87;;
23802;SDS011;12082;51.786;6.018;2024-01-25T05:11:04;33.37;;;7.70;;
23802;SDS011;12082;51.786;6.018;2024-01-25T05:13:30;47.57;;;7.53;;
23802;SDS011;12082;51.786;6.018;2024-01-25T05:15:56;30.27;;;7.63;;
23802;SDS011;12082;51.786;6.018;2024-01-25T05:18:22;43.80;;;7.17;;
23802;SDS011;12082;51.786;6.018;2024-01-25T05:20:48;35.50;;;8.17;;
23802;SDS011;12082;51.786;6.018;2024-01-25T05:23:14;35.83;;;7.07;;
23802;SDS011;12082;51.786;6.018;2024-01-25T05:25:40;48.67;;;8.63;;
23802;SDS011;12082;51.786;6.018;2024-01-25T05:28:06;43.83;;;7.43;;
23802;SDS011;12082;51.786;6.018;2024-01-25T05:30:32;48.83;;;8.37;;
23802;SDS011;12082;51.786;6.018;2024-01-25T05:32:58;38.70;;;7.70;;
23802;SDS011;12082;51.786;6.018;2024-01-25T05:35:25;43.67;;;7.50;;
23802;SDS011;12082;51.786;6.018;2024-01-25T05:37:51;42.30;;;7.87;;
23802;SDS011;12082;51.786;6.018;2024-01-25T05:40:17;48.33;;;8.00;;
23802;SDS011;12082;51.786;6.018;2024-01-25T05:42:43;57.37;;;9.37;;
23802;SDS011;12082;51.786;6.018;2024-01-25T05:45:10;39.77;;;8.73;;
23802;SDS011;12082;51.786;6.018;2024-01-25T05:47:36;49.90;;;8.53;;
23802;SDS011;12082;51.786;6.018;2024-01-25T05:50:02;34.67;;;8.07;;
23802;SDS011;12082;51.786;6.018;2024-01-25T05:52:30;43.20;;;8.43;;
23802;SDS011;12082;51.786;6.018;2024-01-25T05:54:56;63.50;;;10.03;;
23802;SDS011;12082;51.786;6.018;2024-01-25T05:57:22;37.47;;;7.83;;
23802;SDS011;12082;51.786;6.018;2024-01-25T05:59:48;56.23;;;8.03;;
23802;SDS011;12082;51.786;6.018;2024-01-25T06:02:14;30.97;;;7.37;;
23802;SDS011;12082;51.786;6.018;2024-01-25T06:04:40;49.00;;;8.67;;
23802;SDS011;12082;51.786;6.018;2024-01-25T06:07:06;65.37;;;9.27;;
23802;SDS011;12082;51.786;6.018;2024-01-25T06:09:32;46.80;;;9.33;;
23802;SDS011;12082;51.786;6.018;2024-01-25T06:11:58;36.93;;;7.43;;
23802;SDS011;12082;51.786;6.018;2024-01-25T06:14:24;41.20;;;8.37;;
23802;SDS011;12082;51.786;6.018;2024-01-25T06:16:50;35.97;;;7.80;;
23802;SDS011;12082;51.786;6.018;2024-01-25T06:19:16;37.73;;;7.97;;
23802;SDS011;12082;51.786;6.018;2024-01-25T06:21:42;49.60;;;9.03;;
23802;SDS011;12082;51.786;6.018;2024-01-25T06:24:08;53.13;;;9.30;;
23802;SDS011;12082;51.786;6.018;2024-01-25T06:26:34;59.20;;;9.50;;
23802;SDS011;12082;51.786;6.018;2024-01-25T06:29:00;50.43;;;9.23;;
23802;SDS011;12082;51.786;6.018;2024-01-25T06:31:26;34.93;;;8.50;;
23802;SDS011;12082;51.786;6.018;2024-01-25T06:33:52;56.23;;;9.37;;
23802;SDS011;12082;51.786;6.018;2024-01-25T06:36:21;58.27;;;9.37;;
23802;SDS011;12082;51.786;6.018;2024-01-25T06:38:47;40.67;;;8.93;;
23802;SDS011;12082;51.786;6.018;2024-01-25T06:41:14;49.13;;;10.40;;
23802;SDS011;12082;51.786;6.018;2024-01-25T06:43:42;48.53;;;10.20;;
23802;SDS011;12082;51.786;6.018;2024-01-25T06:46:09;46.90;;;9.27;;
23802;SDS011;12082;51.786;6.018;2024-01-25T06:48:35;49.03;;;9.47;;
23802;SDS011;12082;51.786;6.018;2024-01-25T06:51:01;55.60;;;9.57;;
23802;SDS011;12082;51.786;6.018;2024-01-25T06:53:27;59.43;;;10.37;;
23802;SDS011;12082;51.786;6.018;2024-01-25T06:55:53;51.90;;;10.17;;
23802;SDS011;12082;51.786;6.018;2024-01-25T06:58:19;60.83;;;11.93;;
23802;SDS011;12082;51.786;6.018;2024-01-25T07:00:45;51.33;;;9.83;;
23802;SDS011;12082;51.786;6.018;2024-01-25T07:03:12;50.00;;;9.33;;
23802;SDS011;12082;51.786;6.018;2024-01-25T07:05:38;47.60;;;8.97;;
23802;SDS011;12082;51.786;6.018;2024-01-25T07:08:04;60.30;;;10.07;;
23802;SDS011;12082;51.786;6.018;2024-01-25T07:10:30;51.77;;;9.83;;
23802;SDS011;12082;51.786;6.018;2024-01-25T07:12:56;45.60;;;9.37;;
23802;SDS011;12082;51.786;6.018;2024-01-25T07:15:22;32.10;;;8.03;;
23802;SDS011;12082;51.786;6.018;2024-01-25T07:17:49;57.27;;;8.87;;
23802;SDS011;12082;51.786;6.018;2024-01-25T07:20:15;36.43;;;8.87;;
23802;SDS011;12082;51.786;6.018;2024-01-25T07:22:43;54.67;;;9.67;;
23802;SDS011;12082;51.786;6.018;2024-01-25T07:25:09;48.03;;;10.80;;
23802;SDS011;12082;51.786;6.018;2024-01-25T07:27:35;54.77;;;11.13;;
23802;SDS011;12082;51.786;6.018;2024-01-25T07:30:01;49.60;;;10.43;;
23802;SDS011;12082;51.786;6.018;2024-01-25T07:32:27;46.33;;;11.07;;
23802;SDS011;12082;51.786;6.018;2024-01-25T07:34:53;46.93;;;9.73;;
23802;SDS011;12082;51.786;6.018;2024-01-25T07:37:20;56.23;;;11.10;;
23802;SDS011;12082;51.786;6.018;2024-01-25T07:39:46;58.60;;;10.37;;
23802;SDS011;12082;51.786;6.018;2024-01-25T07:42:11;85.73;;;11.47;;
23802;SDS011;12082;51.786;6.018;2024-01-25T07:44:38;47.77;;;10.43;;
23802;SDS011;12082;51.786;6.018;2024-01-25T07:47:04;54.00;;;11.63;;
23802;SDS011;12082;51.786;6.018;2024-01-25T07:49:30;45.67;;;9.50;;
23802;SDS011;12082;51.786;6.018;2024-01-25T07:51:56;50.17;;;9.63;;
23802;SDS011;12082;51.786;6.018;2024-01-25T07:54:22;56.47;;;10.30;;
23802;SDS011;12082;51.786;6.018;2024-01-25T07:56:48;41.07;;;9.57;;
23802;SDS011;12082;51.786;6.018;2024-01-25T07:59:14;46.03;;;9.30;;
23802;SDS011;12082;51.786;6.018;2024-01-25T08:01:40;37.80;;;8.53;;
23802;SDS011;12082;51.786;6.018;2024-01-25T08:04:06;42.90;;;9.97;;
23802;SDS011;12082;51.786;6.018;2024-01-25T08:06:32;49.13;;;9.57;;
23802;SDS011;12082;51.786;6.018;2024-01-25T08:08:58;48.27;;;8.80;;
23802;SDS011;12082;51.786;6.018;2024-01-25T08:11:24;48.43;;;10.13;;
23802;SDS011;12082;51.786;6.018;2024-01-25T08:13:50;43.80;;;9.77;;
23802;SDS011;12082;51.786;6.018;2024-01-25T08:16:16;36.30;;;9.17;;
23802;SDS011;12082;51.786;6.018;2024-01-25T08:18:46;35.33;;;7.83;;
23802;SDS011;12082;51.786;6.018;2024-01-25T08:21:12;41.67;;;9.03;;
23802;SDS011;12082;51.786;6.018;2024-01-25T08:23:38;37.43;;;8.10;;
23802;SDS011;12082;51.786;6.018;2024-01-25T08:26:07;55.20;;;8.77;;
23802;SDS011;12082;51.786;6.018;2024-01-25T08:28:40;28.67;;;7.97;;
23802;SDS011;12082;51.786;6.018;2024-01-25T08:31:09;48.40;;;9.37;;
23802;SDS011;12082;51.786;6.018;2024-01-25T08:33:35;39.13;;;8.43;;
23802;SDS011;12082;51.786;6.018;2024-01-25T08:36:01;43.43;;;9.23;;
23802;SDS011;12082;51.786;6.018;2024-01-25T08:38:27;36.30;;;8.70;;
23802;SDS011;12082;51.786;6.018;2024-01-25T08:40:53;47.70;;;8.70;;
23802;SDS011;12082;51.786;6.018;2024-01-25T08:43:19;50.07;;;10.40;;
23802;SDS011;12082;51.786;6.018;2024-01-25T08:45:46;46.07;;;9.67;;
23802;SDS011;12082;51.786;6.018;2024-01-25T08:48:12;39.00;;;9.37;;
23802;SDS011;12082;51.786;6.018;2024-01-25T08:50:38;35.37;;;8.47;;
23802;SDS011;12082;51.786;6.018;2024-01-25T08:53:04;41.87;;;8.67;;
23802;SDS011;12082;51.786;6.018;2024-01-25T08:55:30;32.83;;;9.50;;
23802;SDS011;12082;51.786;6.018;2024-01-25T08:57:56;31.20;;;8.23;;
23802;SDS011;12082;51.786;6.018;2024-01-25T09:00:22;43.17;;;8.27;;
23802;SDS011;12082;51.786;6.018;2024-01-25T09:02:48;46.43;;;10.30;;
23802;SDS011;12082;51.786;6.018;2024-01-25T09:05:14;33.33;;;8.57;;
23802;SDS011;12082;51.786;6.018;2024-01-25T09:07:40;35.60;;;8.70;;
23802;SDS011;12082;51.786;6.018;2024-01-25T09:10:07;44.80;;;9.43;;
23802;SDS011;12082;51.786;6.018;2024-01-25T09:12:34;44.37;;;9.57;;
23802;SDS011;12082;51.786;6.018;2024-01-25T09:15:00;32.43;;;9.33;;
23802;SDS011;12082;51.786;6.018;2024-01-25T09:17:26;38.93;;;10.53;;
23802;SDS011;12082;51.786;6.018;2024-01-25T09:19:52;45.40;;;9.87;;
23802;SDS011;12082;51.786;6.018;2024-01-25T09:22:18;56.67;;;10.00;;
23802;SDS011;12082;51.786;6.018;2024-01-25T09:24:47;44.23;;;10.97;;
23802;SDS011;12082;51.786;6.018;2024-01-25T09:27:13;35.60;;;9.70;;
23802;SDS011;12082;51.786;6.018;2024-01-25T09:29:39;34.83;;;9.27;;
23802;SDS011;12082;51.786;6.018;2024-01-25T09:32:06;36.17;;;8.90;;
23802;SDS011;12082;51.786;6.018;2024-01-25T09:34:33;45.03;;;10.70;;
23802;SDS011;12082;51.786;6.018;2024-01-25T09:36:59;38.63;;;9.37;;
23802;SDS011;12082;51.786;6.018;2024-01-25T09:39:25;35.50;;;9.73;;
23802;SDS011;12082;51.786;6.018;2024-01-25T09:41:52;41.17;;;10.03;;
23802;SDS011;12082;51.786;6.018;2024-01-25T09:44:18;37.00;;;10.00;;
23802;SDS011;12082;51.786;6.018;2024-01-25T09:46:44;36.03;;;9.80;;
23802;SDS011;12082;51.786;6.018;2024-01-25T09:49:13;37.37;;;8.70;;
23802;SDS011;12082;51.786;6.018;2024-01-25T09:51:40;32.13;;;10.90;;
23802;SDS011;12082;51.786;6.018;2024-01-25T09:54:06;43.80;;;9.17;;
23802;SDS011;12082;51.786;6.018;2024-01-25T09:56:33;32.90;;;8.90;;
23802;SDS011;12082;51.786;6.018;2024-01-25T09:58:59;39.30;;;9.60;;
23802;SDS011;12082;51.786;6.018;2024-01-25T10:01:25;36.13;;;9.90;;
23802;SDS011;12082;51.786;6.018;2024-01-25T10:03:51;49.07;;;8.60;;
23802;SDS011;12082;51.786;6.018;2024-01-25T10:06:17;40.37;;;9.90;;
23802;SDS011;12082;51.786;6.018;2024-01-25T10:08:44;36.43;;;10.00;;
23802;SDS011;12082;51.786;6.018;2024-01-25T10:11:10;39.40;;;10.00;;
23802;SDS011;12082;51.786;6.018;2024-01-25T10:16:15;38.37;;;9.93;;
23802;SDS011;12082;51.786;6.018;2024-01-25T10:18:42;34.77;;;9.43;;
23802;SDS011;12082;51.786;6.018;2024-01-25T10:21:11;30.73;;;9.83;;
23802;SDS011;12082;51.786;6.018;2024-01-25T10:23:38;35.47;;;8.20;;
23802;SDS011;12082;51.786;6.018;2024-01-25T10:26:04;28.37;;;8.90;;
23802;SDS011;12082;51.786;6.018;2024-01-25T10:28:29;34.83;;;9.37;;
23802;SDS011;12082;51.786;6.018;2024-01-25T10:31:00;38.80;;;9.00;;
23802;SDS011;12082;51.786;6.018;2024-01-25T10:33:27;34.73;;;7.60;;
23802;SDS011;12082;51.786;6.018;2024-01-25T10:35:56;37.50;;;9.57;;
23802;SDS011;12082;51.786;6.018;2024-01-25T10:38:30;36.20;;;9.40;;
23802;SDS011;12082;51.786;6.018;2024-01-25T10:41:00;30.03;;;8.43;;
23802;SDS011;12082;51.786;6.018;2024-01-25T10:43:27;38.37;;;9.00;;
23802;SDS011;12082;51.786;6.018;2024-01-25T10:45:53;29.13;;;8.63;;
23802;SDS011;12082;51.786;6.018;2024-01-25T10:48:22;31.10;;;8.37;;
23802;SDS011;12082;51.786;6.018;2024-01-25T10:50:48;35.90;;;9.23;;
23802;SDS011;12082;51.786;6.018;2024-01-25T10:53:15;34.00;;;9.30;;
23802;SDS011;12082;51.786;6.018;2024-01-25T10:55:41;30.77;;;8.77;;
23802;SDS011;12082;51.786;6.018;2024-01-25T10:58:08;38.73;;;9.00;;
23802;SDS011;12082;51.786;6.018;2024-01-25T11:00:34;40.73;;;9.50;;
23802;SDS011;12082;51.786;6.018;2024-01-25T11:03:01;41.13;;;9.43;;
23802;SDS011;12082;51.786;6.018;2024-01-25T11:05:27;33.77;;;8.83;;
23802;SDS011;12082;51.786;6.018;2024-01-25T11:07:53;37.40;;;8.33;;
23802;SDS011;12082;51.786;6.018;2024-01-25T11:10:21;27.77;;;8.13;;
23802;SDS011;12082;51.786;6.018;2024-01-25T11:12:57;28.03;;;8.17;;
23802;SDS011;12082;51.786;6.018;2024-01-25T11:15:33;32.10;;;8.13;;
23802;SDS011;12082;51.786;6.018;2024-01-25T11:18:00;29.23;;;9.47;;
23802;SDS011;12082;51.786;6.018;2024-01-25T11:20:26;35.73;;;9.83;;
23802;SDS011;12082;51.786;6.018;2024-01-25T11:23:10;26.10;;;8.63;;
23802;SDS011;12082;51.786;6.018;2024-01-25T11:25:40;40.37;;;8.80;;
23802;SDS011;12082;51.786;6.018;2024-01-25T11:28:06;39.00;;;8.03;;
23802;SDS011;12082;51.786;6.018;2024-01-25T11:30:33;34.73;;;8.80;;
23802;SDS011;12082;51.786;6.018;2024-01-25T11:33:00;36.27;;;7.53;;
23802;SDS011;12082;51.786;6.018;2024-01-25T11:35:26;33.70;;;9.00;;
23802;SDS011;12082;51.786;6.018;2024-01-25T11:37:52;30.37;;;8.53;;
23802;SDS011;12082;51.786;6.018;2024-01-25T11:40:18;33.07;;;8.13;;
23802;SDS011;12082;51.786;6.018;2024-01-25T11:42:47;32.47;;;9.10;;
23802;SDS011;12082;51.786;6.018;2024-01-25T11:45:14;29.27;;;8.77;;
23802;SDS011;12082;51.786;6.018;2024-01-25T11:47:40;31.83;;;9.20;;
23802;SDS011;12082;51.786;6.018;2024-01-25T11:50:07;28.90;;;8.37;;
23802;SDS011;12082;51.786;6.018;2024-01-25T11:52:34;33.10;;;10.20;;
23802;SDS011;12082;51.786;6.018;2024-01-25T11:55:06;33.80;;;8.77;;
23802;SDS011;12082;51.786;6.018;2024-01-25T11:57:40;38.07;;;9.00;;
23802;SDS011;12082;51.786;6.018;2024-01-25T12:00:07;33.37;;;9.17;;
23802;SDS011;12082;51.786;6.018;2024-01-25T12:02:34;38.77;;;9.50;;
23802;SDS011;12082;51.786;6.018;2024-01-25T12:05:01;32.47;;;9.03;;
23802;SDS011;12082;51.786;6.018;2024-01-25T12:07:29;37.77;;;10.67;;
23802;SDS011;12082;51.786;6.018;2024-01-25T12:10:05;38.13;;;11.13;;
23802;SDS011;12082;51.786;6.018;2024-01-25T12:12:31;30.90;;;11.17;;
23802;SDS011;12082;51.786;6.018;2024-01-25T12:15:01;31.67;;;10.63;;
23802;SDS011;12082;51.786;6.018;2024-01-25T12:17:28;30.67;;;10.50;;
23802;SDS011;12082;51.786;6.018;2024-01-25T12:19:55;29.03;;;9.50;;
23802;SDS011;12082;51.786;6.018;2024-01-25T12:22:21;26.90;;;11.10;;
23802;SDS011;12082;51.786;6.018;2024-01-25T12:24:47;44.47;;;12.17;;
23802;SDS011;12082;51.786;6.018;2024-01-25T12:27:17;39.47;;;10.37;;
23802;SDS011;12082;51.786;6.018;2024-01-25T12:29:43;40.63;;;12.23;;
23802;SDS011;12082;51.786;6.018;2024-01-25T12:32:09;29.03;;;10.63;;
23802;SDS011;12082;51.786;6.018;2024-01-25T12:34:35;36.53;;;11.37;;
23802;SDS011;12082;51.786;6.018;2024-01-25T12:37:02;34.40;;;11.00;;
23802;SDS011;12082;51.786;6.018;2024-01-25T12:39:28;34.23;;;11.43;;
23802;SDS011;12082;51.786;6.018;2024-01-25T12:41:54;43.63;;;12.57;;
23802;SDS011;12082;51.786;6.018;2024-01-25T12:44:20;36.67;;;12.10;;
23802;SDS011;12082;51.786;6.018;2024-01-25T12:46:46;41.90;;;11.03;;
23802;SDS011;12082;51.786;6.018;2024-01-25T12:49:12;38.63;;;11.77;;
23802;SDS011;12082;51.786;6.018;2024-01-25T12:51:39;37.00;;;11.50;;
23802;SDS011;12082;51.786;6.018;2024-01-25T12:54:05;43.33;;;12.77;;
23802;SDS011;12082;51.786;6.018;2024-01-25T12:56:31;33.03;;;12.03;;
23802;SDS011;12082;51.786;6.018;2024-01-25T12:58:57;41.73;;;12.27;;
23802;SDS011;12082;51.786;6.018;2024-01-25T13:01:23;35.17;;;12.53;;
23802;SDS011;12082;51.786;6.018;2024-01-25T13:03:49;38.20;;;14.93;;
23802;SDS011;12082;51.786;6.018;2024-01-25T13:06:15;51.47;;;14.90;;
23802;SDS011;12082;51.786;6.018;2024-01-25T13:08:41;43.47;;;15.27;;
23802;SDS011;12082;51.786;6.018;2024-01-25T13:11:07;43.30;;;15.37;;
23802;SDS011;12082;51.786;6.018;2024-01-25T13:13:33;52.47;;;17.40;;
23802;SDS011;12082;51.786;6.018;2024-01-25T13:15:59;51.67;;;17.07;;
23802;SDS011;12082;51.786;6.018;2024-01-25T13:18:25;60.83;;;19.93;;
23802;SDS011;12082;51.786;6.018;2024-01-25T13:20:51;57.23;;;19.23;;
23802;SDS011;12082;51.786;6.018;2024-01-25T13:23:17;51.73;;;18.60;;
23802;SDS011;12082;51.786;6.018;2024-01-25T13:25:43;50.80;;;18.43;;
23802;SDS011;12082;51.786;6.018;2024-01-25T13:28:09;55.83;;;19.93;;
23802;SDS011;12082;51.786;6.018;2024-01-25T13:30:35;50.47;;;20.03;;
23802;SDS011;12082;51.786;6.018;2024-01-25T13:33:01;50.47;;;18.60;;
23802;SDS011;12082;51.786;6.018;2024-01-25T13:35:27;50.13;;;19.43;;
23802;SDS011;12082;51.786;6.018;2024-01-25T13:37:53;52.40;;;19.57;;
23802;SDS011;12082;51.786;6.018;2024-01-25T13:40:18;51.27;;;17.30;;
23802;SDS011;12082;51.786;6.018;2024-01-25T13:42:44;48.47;;;18.33;;
23802;SDS011;12082;51.786;6.018;2024-01-25T13:45:10;50.87;;;20.50;;
23802;SDS011;12082;51.786;6.018;2024-01-25T13:47:36;52.37;;;18.77;;
23802;SDS011;12082;51.786;6.018;2024-01-25T13:50:02;52.50;;;17.77;;
23802;SDS011;12082;51.786;6.018;2024-01-25T13:52:29;49.70;;;18.30;;
23802;SDS011;12082;51.786;6.018;2024-01-25T13:54:55;56.43;;;19.07;;
23802;SDS011;12082;51.786;6.018;2024-01-25T13:57:21;45.07;;;17.87;;
23802;SDS011;12082;51.786;6.018;2024-01-25T13:59:49;51.40;;;17.50;;
23802;SDS011;12082;51.786;6.018;2024-01-25T14:02:16;65.03;;;19.83;;
23802;SDS011;12082;51.786;6.018;2024-01-25T14:04:42;49.40;;;16.80;;
23802;SDS011;12082;51.786;6.018;2024-01-25T14:07:08;53.00;;;19.27;;
23802;SDS011;12082;51.786;6.018;2024-01-25T14:09:34;51.50;;;18.47;;
23802;SDS011;12082;51.786;6.018;2024-01-25T14:12:00;53.20;;;19.67;;
23802;SDS011;12082;51.786;6.018;2024-01-25T14:14:26;41.20;;;18.70;;
23802;SDS011;12082;51.786;6.018;2024-01-25T14:16:52;53.03;;;18.50;;
23802;SDS011;12082;51.786;6.018;2024-01-25T14:19:18;55.90;;;19.27;;
23802;SDS011;12082;51.786;6.018;2024-01-25T14:21:45;59.47;;;19.57;;
23802;SDS011;12082;51.786;6.018;2024-01-25T14:24:12;51.67;;;17.10;;
23802;SDS011;12082;51.786;6.018;2024-01-25T14:26:38;54.20;;;18.60;;
23802;SDS011;12082;51.786;6.018;2024-01-25T14:29:04;58.03;;;18.00;;